createdAt,value
2017-12-06T00:01:50.824Z,42.33
2017-12-06T00:04:19.789Z,37.93
2017-12-06T00:06:47.209Z,37.43
2017-12-06T00:09:14.645Z,37.70
2017-12-06T00:11:42.116Z,37.90
2017-12-06T00:14:15.284Z,38.43
2017-12-06T00:16:42.972Z,31.07
2017-12-06T00:19:10.401Z,37.07
2017-12-06T00:21:37.841Z,46.13
2017-12-06T00:24:05.288Z,37.27
2017-12-06T00:26:33.116Z,37.03
2017-12-06T00:29:00.557Z,40.50
2017-12-06T00:31:28.163Z,38.73
2017-12-06T00:33:55.993Z,44.20
2017-12-06T00:36:23.425Z,41.57
2017-12-06T00:38:50.880Z,31.30
2017-12-06T00:41:18.316Z,38.27
2017-12-06T00:43:45.748Z,44.47
2017-12-06T00:46:13.625Z,37.97
2017-12-06T00:48:41.026Z,45.33
2017-12-06T00:51:08.456Z,40.87
2017-12-06T00:53:36.940Z,37.07
2017-12-06T00:56:04.386Z,37.87
2017-12-06T00:58:31.827Z,42.00
2017-12-06T01:00:59.270Z,40.63
2017-12-06T01:03:27.101Z,37.23
2017-12-06T01:05:54.538Z,36.57
2017-12-06T01:08:22.252Z,45.10
2017-12-06T01:10:49.693Z,39.70
2017-12-06T01:13:17.533Z,44.27
2017-12-06T01:15:44.986Z,40.20
2017-12-06T01:18:12.420Z,37.93
2017-12-06T01:20:39.865Z,38.93
2017-12-06T01:23:07.341Z,45.67
2017-12-06T01:25:34.784Z,36.70
2017-12-06T01:28:02.232Z,40.80
2017-12-06T01:30:29.894Z,38.40
2017-12-06T01:32:57.325Z,39.83
2017-12-06T01:35:24.764Z,40.33
2017-12-06T01:37:52.692Z,42.90
2017-12-06T01:40:20.132Z,38.13
2017-12-06T01:42:47.574Z,41.97
2017-12-06T01:45:15.351Z,42.27
2017-12-06T01:47:42.792Z,42.33
2017-12-06T01:50:10.232Z,47.43
2017-12-06T01:52:37.988Z,35.40
2017-12-06T01:55:05.417Z,38.57
2017-12-06T01:57:33.250Z,36.40
2017-12-06T02:00:00.693Z,36.47
2017-12-06T02:02:28.130Z,37.13
2017-12-06T02:04:55.595Z,38.93
2017-12-06T02:07:23.036Z,32.17
2017-12-06T02:09:50.468Z,36.10
2017-12-06T02:12:18.325Z,32.73
2017-12-06T02:14:46.160Z,38.57
2017-12-06T02:17:13.596Z,42.07
2017-12-06T02:19:41.052Z,34.20
2017-12-06T02:22:08.494Z,30.83
2017-12-06T02:24:35.932Z,31.07
2017-12-06T02:27:03.388Z,27.17
2017-12-06T02:29:30.824Z,33.80
2017-12-06T02:31:58.656Z,27.90
2017-12-06T02:34:26.134Z,48.60
2017-12-06T02:36:53.963Z,35.60
2017-12-06T02:39:21.400Z,31.97
2017-12-06T02:42:00.941Z,34.07
2017-12-06T02:44:40.424Z,29.23
2017-12-06T02:47:08.260Z,32.70
2017-12-06T02:49:35.701Z,31.63
2017-12-06T02:52:03.140Z,33.73
2017-12-06T02:54:30.602Z,30.13
2017-12-06T02:56:58.042Z,25.23
2017-12-06T02:59:25.472Z,32.03
2017-12-06T03:01:53.391Z,27.33
2017-12-06T03:04:21.164Z,30.97
2017-12-06T03:06:48.625Z,32.67
2017-12-06T03:09:16.985Z,30.47
2017-12-06T03:11:44.423Z,23.80
2017-12-06T03:14:11.868Z,20.97
2017-12-06T03:16:39.327Z,29.43
2017-12-06T03:19:06.757Z,25.90
2017-12-06T03:21:34.596Z,32.67
2017-12-06T03:24:02.324Z,24.33
2017-12-06T03:26:33.384Z,28.50
2017-12-06T03:31:35.134Z,32.20
2017-12-06T03:34:02.565Z,26.53
2017-12-06T03:36:30.000Z,20.07
2017-12-06T03:38:57.842Z,25.67
2017-12-06T03:41:25.298Z,31.40
2017-12-06T03:43:52.736Z,27.57
2017-12-06T03:46:20.198Z,29.03
2017-12-06T03:48:47.636Z,28.13
2017-12-06T03:51:15.069Z,32.50
2017-12-06T03:53:42.539Z,23.97
2017-12-06T03:56:09.958Z,27.30
2017-12-06T03:58:37.401Z,29.07
2017-12-06T04:01:05.227Z,25.63
2017-12-06T04:03:32.658Z,26.20
2017-12-06T04:06:00.366Z,26.43
2017-12-06T04:08:28.205Z,29.13
2017-12-06T04:10:55.632Z,31.40
2017-12-06T04:13:23.097Z,30.47
2017-12-06T04:15:50.528Z,28.67
2017-12-06T04:18:17.963Z,25.50
2017-12-06T04:20:45.796Z,29.23
2017-12-06T04:23:13.227Z,33.27
2017-12-06T04:25:40.669Z,27.17
2017-12-06T04:28:08.440Z,28.97
2017-12-06T04:30:35.875Z,27.60
2017-12-06T04:33:03.311Z,30.83
2017-12-06T04:35:31.160Z,25.93
2017-12-06T04:37:58.988Z,25.50
2017-12-06T04:40:26.424Z,24.93
2017-12-06T04:42:53.880Z,25.67
2017-12-06T04:45:21.315Z,31.80
2017-12-06T04:47:48.747Z,24.53
2017-12-06T04:50:16.584Z,24.80
2017-12-06T04:52:44.015Z,31.50
2017-12-06T04:55:11.462Z,27.60
2017-12-06T04:57:38.897Z,28.47
2017-12-06T05:00:06.328Z,33.57
2017-12-06T05:02:34.156Z,27.53
2017-12-06T05:05:01.624Z,24.63
2017-12-06T05:07:29.055Z,29.83
2017-12-06T05:09:56.485Z,32.40
2017-12-06T05:12:23.923Z,30.67
2017-12-06T05:14:51.748Z,26.40
2017-12-06T05:17:19.483Z,26.30
2017-12-06T05:19:46.911Z,26.53
2017-12-06T05:22:14.344Z,26.23
2017-12-06T05:24:42.180Z,28.17
2017-12-06T05:27:09.615Z,28.03
2017-12-06T05:29:37.048Z,26.77
2017-12-06T05:32:04.605Z,30.57
2017-12-06T05:34:32.039Z,33.27
2017-12-06T05:36:59.868Z,28.70
2017-12-06T05:39:27.616Z,33.43
2017-12-06T05:41:55.058Z,29.10
2017-12-06T05:44:22.489Z,26.77
2017-12-06T05:46:49.950Z,30.50
2017-12-06T05:49:17.377Z,33.53
2017-12-06T05:51:45.204Z,34.23
2017-12-06T05:54:12.657Z,27.10
2017-12-06T05:56:40.093Z,26.97
2017-12-06T05:59:07.528Z,24.20
2017-12-06T06:01:34.981Z,28.23
2017-12-06T06:04:02.417Z,29.20
2017-12-06T06:06:30.232Z,31.40
2017-12-06T06:08:57.882Z,30.83
2017-12-06T06:11:25.315Z,34.30
2017-12-06T06:13:52.746Z,49.30
2017-12-06T06:16:20.571Z,22.00
2017-12-06T06:18:48.008Z,27.80
2017-12-06T06:21:15.457Z,24.47
2017-12-06T06:23:42.884Z,24.13
2017-12-06T06:26:10.320Z,24.37
2017-12-06T06:28:38.044Z,26.53
2017-12-06T06:31:05.512Z,22.10
2017-12-06T06:33:32.942Z,19.73
2017-12-06T06:36:00.400Z,31.10
2017-12-06T06:38:27.833Z,24.07
2017-12-06T06:40:55.268Z,30.33
2017-12-06T06:43:23.385Z,20.00
2017-12-06T06:45:50.811Z,20.90
2017-12-06T06:48:18.243Z,23.63
2017-12-06T06:50:46.076Z,22.20
2017-12-06T06:53:13.508Z,24.07
2017-12-06T06:55:40.945Z,24.23
2017-12-06T06:58:08.732Z,23.27
2017-12-06T07:00:36.163Z,24.43
2017-12-06T07:03:03.592Z,22.73
2017-12-06T07:05:31.430Z,22.53
2017-12-06T07:07:58.865Z,21.67
2017-12-06T07:10:26.304Z,24.70
2017-12-06T07:12:53.740Z,19.40
2017-12-06T07:15:21.172Z,20.47
2017-12-06T07:17:49.015Z,24.47
2017-12-06T07:20:16.455Z,27.23
2017-12-06T07:22:43.903Z,24.50
2017-12-06T07:25:11.660Z,22.00
2017-12-06T07:27:39.091Z,21.80
2017-12-06T07:30:06.520Z,23.57
2017-12-06T07:32:34.353Z,20.27
2017-12-06T07:35:01.794Z,20.03
2017-12-06T07:37:31.640Z,27.13
2017-12-06T07:39:59.669Z,21.40
2017-12-06T07:42:27.111Z,23.17
2017-12-06T07:44:54.552Z,21.87
2017-12-06T07:47:21.996Z,22.83
2017-12-06T07:49:49.432Z,19.87
2017-12-06T07:52:17.251Z,25.67
2017-12-06T07:54:44.793Z,20.40
2017-12-06T07:57:13.008Z,23.57
2017-12-06T07:59:40.461Z,24.17
2017-12-06T08:02:07.895Z,19.07
2017-12-06T08:04:35.323Z,26.60
2017-12-06T08:07:02.772Z,15.93
2017-12-06T08:09:30.203Z,22.20
2017-12-06T08:11:58.032Z,23.00
2017-12-06T08:14:25.489Z,19.30
2017-12-06T08:16:52.983Z,20.17
2017-12-06T08:19:20.372Z,18.50
2017-12-06T08:21:47.792Z,26.00
2017-12-06T08:24:15.615Z,18.63
2017-12-06T08:26:43.360Z,19.43
2017-12-06T08:29:10.793Z,15.60
2017-12-06T08:31:38.220Z,14.00
2017-12-06T08:34:06.160Z,18.93
2017-12-06T08:36:33.587Z,15.60
2017-12-06T08:39:01.020Z,17.50
2017-12-06T08:41:28.448Z,16.50
2017-12-06T08:43:56.280Z,21.77
2017-12-06T08:46:23.931Z,17.50
2017-12-06T08:48:51.356Z,25.00
2017-12-06T08:51:18.796Z,18.80
2017-12-06T08:53:46.234Z,15.23
2017-12-06T08:56:14.062Z,16.97
2017-12-06T08:58:41.504Z,18.93
2017-12-06T09:01:08.940Z,19.73
2017-12-06T09:03:36.374Z,18.93
2017-12-06T09:06:04.455Z,21.00
2017-12-06T09:08:31.897Z,20.00
2017-12-06T09:10:59.722Z,20.13
2017-12-06T09:13:27.155Z,20.27
2017-12-06T09:15:54.921Z,17.40
2017-12-06T09:18:22.352Z,24.10
2017-12-06T09:20:49.776Z,16.60
2017-12-06T09:23:17.637Z,19.53
2017-12-06T09:25:45.143Z,22.70
2017-12-06T09:28:12.556Z,19.20
2017-12-06T09:30:40.416Z,15.53
2017-12-06T09:33:08.240Z,20.90
2017-12-06T09:35:35.680Z,15.80
2017-12-06T09:38:03.748Z,14.77
2017-12-06T09:40:31.183Z,17.60
2017-12-06T09:42:58.605Z,14.90
2017-12-06T09:45:26.055Z,15.50
2017-12-06T09:47:53.497Z,15.03
2017-12-06T09:50:20.941Z,15.77
2017-12-06T09:52:48.479Z,17.07
2017-12-06T09:55:15.893Z,15.30
2017-12-06T09:57:44.008Z,15.43
2017-12-06T10:00:11.439Z,15.27
2017-12-06T10:02:38.877Z,15.30
2017-12-06T10:05:06.727Z,14.20
2017-12-06T10:07:34.143Z,12.73
2017-12-06T10:10:01.573Z,17.10
2017-12-06T10:12:29.013Z,23.00
2017-12-06T10:14:56.445Z,13.33
2017-12-06T10:17:23.873Z,13.40
2017-12-06T10:19:51.312Z,14.30
2017-12-06T10:22:18.744Z,23.87
2017-12-06T10:24:46.172Z,11.93
2017-12-06T10:27:14.017Z,12.13
2017-12-06T10:29:41.445Z,10.90
2017-12-06T10:32:08.870Z,9.50
2017-12-06T10:34:36.397Z,14.57
2017-12-06T10:37:04.224Z,12.53
2017-12-06T10:39:31.662Z,14.57
2017-12-06T10:41:59.902Z,10.20
2017-12-06T10:44:27.334Z,11.90
2017-12-06T10:46:54.748Z,12.30
2017-12-06T10:49:22.283Z,11.97
2017-12-06T10:51:49.707Z,10.27
2017-12-06T10:54:17.525Z,13.33
2017-12-06T10:56:44.960Z,11.27
2017-12-06T10:59:12.385Z,11.60
2017-12-06T11:01:41.124Z,11.40
2017-12-06T11:04:08.553Z,15.23
2017-12-06T11:06:35.977Z,9.23
2017-12-06T11:09:03.833Z,11.77
2017-12-06T11:11:31.264Z,10.43
2017-12-06T11:13:58.693Z,14.27
2017-12-06T11:16:26.139Z,13.83
2017-12-06T11:18:53.563Z,14.23
2017-12-06T11:21:21.395Z,10.37
2017-12-06T11:23:48.827Z,12.90
2017-12-06T11:26:16.261Z,17.03
2017-12-06T11:28:43.715Z,14.20
2017-12-06T11:31:11.140Z,11.33
2017-12-06T11:33:38.970Z,13.00
2017-12-06T11:36:06.423Z,13.73
2017-12-06T11:38:33.853Z,11.27
2017-12-06T11:41:01.285Z,13.23
2017-12-06T11:43:29.104Z,14.43
2017-12-06T11:45:56.536Z,15.60
2017-12-06T11:48:23.989Z,9.70
2017-12-06T11:50:51.416Z,9.47
2017-12-06T11:53:18.841Z,12.70
2017-12-06T11:55:46.280Z,16.13
2017-12-06T11:58:13.705Z,16.33
2017-12-06T12:00:41.132Z,13.97
2017-12-06T12:03:08.589Z,16.87
2017-12-06T12:05:36.405Z,16.10
2017-12-06T12:08:03.839Z,13.23
2017-12-06T12:10:31.603Z,12.23
2017-12-06T12:12:59.037Z,13.17
2017-12-06T12:15:26.469Z,16.07
2017-12-06T12:17:54.304Z,13.53
2017-12-06T12:20:21.742Z,17.50
2017-12-06T12:22:49.160Z,12.10
2017-12-06T12:25:16.705Z,11.67
2017-12-06T12:27:44.526Z,18.10
2017-12-06T12:30:11.947Z,7.20
2017-12-06T12:32:39.388Z,12.90
2017-12-06T12:35:06.812Z,11.93
2017-12-06T12:37:34.240Z,12.60
2017-12-06T12:40:01.879Z,15.90
2017-12-06T12:42:29.313Z,9.27
2017-12-06T12:44:56.734Z,10.07
2017-12-06T12:47:24.272Z,10.00
2017-12-06T12:49:51.701Z,10.53
2017-12-06T12:52:19.145Z,9.40
2017-12-06T12:54:46.589Z,9.33
2017-12-06T12:57:14.031Z,12.80
2017-12-06T12:59:41.853Z,13.47
2017-12-06T13:02:09.691Z,10.50
2017-12-06T13:04:37.142Z,7.67
2017-12-06T13:07:04.548Z,11.97
2017-12-06T13:09:31.979Z,9.60
2017-12-06T13:11:59.399Z,8.80
2017-12-06T13:14:26.829Z,12.60
2017-12-06T13:16:54.663Z,8.13
2017-12-06T13:19:22.100Z,12.07
2017-12-06T13:21:49.528Z,11.37
2017-12-06T13:24:16.961Z,8.57
2017-12-06T13:26:44.388Z,13.83
2017-12-06T13:29:11.811Z,10.43
2017-12-06T13:31:39.251Z,8.23
2017-12-06T13:34:06.689Z,7.40
2017-12-06T13:36:34.108Z,7.97
2017-12-06T13:39:02.370Z,6.07
2017-12-06T13:41:29.800Z,8.77
2017-12-06T13:43:57.232Z,15.00
2017-12-06T13:46:24.680Z,9.90
2017-12-06T13:48:52.104Z,10.70
2017-12-06T13:51:19.723Z,9.17
2017-12-06T13:53:47.155Z,15.43
2017-12-06T13:56:14.572Z,8.27
2017-12-06T13:58:43.215Z,4.80
2017-12-06T14:01:10.644Z,10.53
2017-12-06T14:03:38.084Z,6.60
2017-12-06T14:06:06.792Z,7.70
2017-12-06T14:08:34.212Z,5.37
2017-12-06T14:11:02.027Z,9.73
2017-12-06T14:13:29.680Z,7.20
2017-12-06T14:15:57.214Z,8.60
2017-12-06T14:18:24.630Z,6.30
2017-12-06T14:20:52.356Z,5.60
2017-12-06T14:23:19.797Z,5.67
2017-12-06T14:25:47.222Z,9.77
2017-12-06T14:28:15.075Z,6.00
2017-12-06T14:30:42.899Z,5.07
2017-12-06T14:33:10.336Z,5.13
2017-12-06T14:35:37.789Z,10.10
2017-12-06T14:38:05.208Z,4.77
2017-12-06T14:40:33.028Z,4.80
2017-12-06T14:43:00.454Z,9.90
2017-12-06T14:45:28.704Z,5.40
2017-12-06T14:47:56.527Z,6.23
2017-12-06T14:50:23.952Z,4.20
2017-12-06T14:52:51.421Z,5.83
2017-12-06T14:55:18.844Z,10.73
2017-12-06T14:57:46.651Z,9.17
2017-12-06T15:00:14.100Z,7.93
2017-12-06T15:02:41.523Z,7.93
2017-12-06T15:05:08.946Z,5.67
2017-12-06T15:07:36.406Z,5.80
2017-12-06T15:10:04.228Z,11.23
2017-12-06T15:12:37.730Z,8.47
2017-12-06T15:14:59.239Z,7.20
2017-12-06T15:17:26.664Z,6.20
2017-12-06T15:19:54.083Z,5.97
2017-12-06T15:22:21.519Z,6.30
2017-12-06T15:24:48.942Z,6.47
2017-12-06T15:27:16.367Z,4.63
2017-12-06T15:29:44.197Z,5.57
2017-12-06T15:32:11.620Z,4.67
2017-12-06T15:34:39.052Z,7.30
2017-12-06T15:37:06.493Z,7.30
2017-12-06T15:39:34.312Z,4.13
2017-12-06T15:42:01.742Z,7.67
2017-12-06T15:44:29.176Z,7.77
2017-12-06T15:46:56.592Z,6.60
2017-12-06T15:49:24.021Z,8.07
2017-12-06T15:51:51.563Z,5.20
2017-12-06T15:54:18.988Z,5.93
2017-12-06T15:56:46.812Z,13.93
2017-12-06T15:59:14.254Z,7.23
2017-12-06T16:01:41.676Z,5.87
2017-12-06T16:04:09.626Z,6.60
2017-12-06T16:06:37.732Z,4.87
2017-12-06T16:09:05.162Z,8.30
2017-12-06T16:11:32.576Z,4.87
2017-12-06T16:14:00.019Z,6.30
2017-12-06T16:16:27.587Z,5.27
2017-12-06T16:18:55.003Z,6.80
2017-12-06T16:21:22.467Z,6.80
2017-12-06T16:23:49.904Z,7.27
2017-12-06T16:26:17.324Z,6.53
2017-12-06T16:28:46.062Z,6.80
2017-12-06T16:31:13.484Z,7.67
2017-12-06T16:33:40.918Z,10.10
2017-12-06T16:36:20.664Z,5.73
2017-12-06T16:38:48.073Z,8.37
2017-12-06T16:41:15.495Z,5.10
2017-12-06T16:43:42.912Z,7.40
2017-12-06T16:46:10.336Z,6.20
2017-12-06T16:48:37.760Z,6.33
2017-12-06T16:51:05.183Z,5.70
2017-12-06T16:53:33.013Z,9.10
2017-12-06T16:56:00.684Z,6.60
2017-12-06T16:58:28.111Z,5.40
2017-12-06T17:00:55.531Z,7.47
2017-12-06T17:03:23.388Z,7.93
2017-12-06T17:05:50.791Z,6.90
2017-12-06T17:08:18.211Z,6.93
2017-12-06T17:10:45.901Z,7.63
2017-12-06T17:13:13.329Z,7.27
2017-12-06T17:15:40.767Z,10.83
2017-12-06T17:18:08.608Z,9.03
2017-12-06T17:20:36.035Z,9.73
2017-12-06T17:23:03.459Z,5.10
2017-12-06T17:25:30.908Z,5.60
2017-12-06T17:27:58.324Z,7.20
2017-12-06T17:30:37.483Z,5.77
2017-12-06T17:33:05.305Z,4.97
2017-12-06T17:35:32.747Z,8.77
2017-12-06T17:38:11.689Z,5.10
2017-12-06T17:40:39.131Z,4.83
2017-12-06T17:43:06.556Z,5.17
2017-12-06T17:45:33.984Z,5.10
2017-12-06T17:48:01.824Z,5.70
2017-12-06T17:50:29.243Z,6.00
2017-12-06T17:52:56.663Z,8.77
2017-12-06T17:55:24.101Z,5.20
2017-12-06T17:57:51.540Z,5.53
2017-12-06T18:00:18.948Z,5.63
2017-12-06T18:02:46.467Z,7.90
2017-12-06T18:05:14.293Z,6.53
2017-12-06T18:07:41.711Z,10.07
2017-12-06T18:10:09.497Z,8.13
2017-12-06T18:12:36.920Z,5.77
2017-12-06T18:15:04.740Z,4.63
2017-12-06T18:17:32.191Z,5.67
2017-12-06T18:19:59.625Z,8.60
2017-12-06T18:22:27.045Z,11.83
2017-12-06T18:24:54.864Z,7.00
2017-12-06T18:27:22.520Z,5.90
2017-12-06T18:29:49.957Z,7.13
2017-12-06T18:32:17.376Z,6.77
2017-12-06T18:34:45.364Z,5.93
2017-12-06T18:37:12.788Z,7.90
2017-12-06T18:39:40.204Z,6.20
2017-12-06T18:42:07.891Z,4.80
2017-12-06T18:44:35.323Z,8.20
2017-12-06T18:47:02.755Z,5.87
2017-12-06T18:49:30.188Z,6.73
2017-12-06T18:51:57.612Z,10.33
2017-12-06T18:54:25.044Z,6.80
2017-12-06T18:56:52.471Z,7.57
2017-12-06T18:59:20.628Z,6.80
2017-12-06T19:01:48.475Z,8.03
2017-12-06T19:04:16.297Z,11.10
2017-12-06T19:06:43.708Z,7.80
2017-12-06T19:09:11.496Z,8.27
2017-12-06T19:11:38.923Z,9.80
2017-12-06T19:14:06.344Z,10.07
2017-12-06T19:16:33.785Z,9.43
2017-12-06T19:19:01.213Z,11.13
2017-12-06T19:21:28.704Z,11.20
2017-12-06T19:23:56.144Z,13.33
2017-12-06T19:26:23.559Z,9.03
2017-12-06T19:28:50.979Z,10.90
2017-12-06T19:31:18.809Z,10.80
2017-12-06T19:33:46.241Z,11.60
2017-12-06T19:36:13.671Z,10.00
2017-12-06T19:38:41.105Z,10.77
2017-12-06T19:41:08.540Z,10.07
2017-12-06T19:43:36.075Z,10.13
2017-12-06T19:46:03.488Z,7.40
2017-12-06T19:48:31.304Z,9.90
2017-12-06T19:50:58.739Z,9.10
2017-12-06T19:53:26.178Z,9.40
2017-12-06T19:55:53.621Z,9.57
2017-12-06T19:58:21.464Z,10.80
2017-12-06T20:00:48.900Z,10.00
2017-12-06T20:03:16.321Z,9.33
2017-12-06T20:05:43.775Z,14.73
2017-12-06T20:08:11.192Z,10.73
2017-12-06T20:10:39.049Z,7.83
2017-12-06T20:13:06.933Z,10.00
2017-12-06T20:15:34.760Z,9.90
2017-12-06T20:18:02.225Z,9.23
2017-12-06T20:20:29.652Z,6.50
2017-12-06T20:22:57.092Z,8.40
2017-12-06T20:25:24.526Z,8.07
2017-12-06T20:27:51.958Z,6.30
2017-12-06T20:30:19.785Z,8.00
2017-12-06T20:32:47.218Z,6.83
2017-12-06T20:35:14.748Z,7.70
2017-12-06T20:37:42.481Z,14.70
2017-12-06T20:40:10.049Z,5.93
2017-12-06T20:42:38.164Z,7.83
2017-12-06T20:45:05.606Z,6.70
2017-12-06T20:47:33.396Z,5.80
2017-12-06T20:50:00.853Z,6.80
2017-12-06T20:52:28.303Z,5.70
2017-12-06T20:54:55.862Z,6.23
2017-12-06T20:57:23.269Z,9.77
2017-12-06T20:59:51.385Z,9.90
2017-12-06T21:02:18.813Z,7.47
2017-12-06T21:04:46.251Z,13.60
2017-12-06T21:07:14.331Z,6.20
2017-12-06T21:09:41.764Z,11.40
2017-12-06T21:12:09.585Z,9.50
2017-12-06T21:14:37.029Z,6.30
2017-12-06T21:17:04.481Z,7.60
2017-12-06T21:19:31.984Z,11.60
2017-12-06T21:21:59.414Z,9.50
2017-12-06T21:24:26.944Z,10.43
2017-12-06T21:26:54.374Z,11.40
2017-12-06T21:29:22.188Z,8.40
2017-12-06T21:31:49.632Z,10.07
2017-12-06T21:34:17.071Z,9.00
2017-12-06T21:36:44.491Z,8.17
2017-12-06T21:39:12.304Z,8.10
2017-12-06T21:41:39.999Z,10.97
2017-12-06T21:44:07.469Z,15.37
2017-12-06T21:46:35.284Z,13.00
2017-12-06T21:49:02.723Z,13.30
2017-12-06T21:51:30.179Z,11.10
2017-12-06T21:53:57.606Z,15.47
2017-12-06T21:56:25.432Z,21.00
2017-12-06T21:58:52.879Z,17.30
2017-12-06T22:01:20.307Z,20.13
2017-12-06T22:03:47.739Z,21.37
2017-12-06T22:06:15.188Z,20.30
2017-12-06T22:08:43.008Z,19.97
2017-12-06T22:11:10.446Z,20.03
2017-12-06T22:13:38.964Z,22.13
2017-12-06T22:16:06.388Z,24.20
2017-12-06T22:18:33.825Z,20.83
2017-12-06T22:21:01.248Z,26.00
2017-12-06T22:23:29.418Z,30.50
2017-12-06T22:25:56.847Z,25.58
2017-12-06T22:28:24.281Z,21.80
2017-12-06T22:30:51.844Z,25.43
2017-12-06T22:33:19.273Z,19.83
2017-12-06T22:35:46.700Z,24.57
2017-12-06T22:38:14.172Z,22.63
2017-12-06T22:40:41.601Z,25.10
2017-12-06T22:43:09.436Z,22.30
2017-12-06T22:45:36.889Z,24.00
2017-12-06T22:48:04.329Z,27.30
2017-12-06T22:50:31.769Z,23.87
2017-12-06T22:52:59.320Z,24.60
2017-12-06T22:55:26.761Z,26.30
2017-12-06T22:57:54.217Z,24.30
2017-12-06T23:00:21.680Z,30.97
2017-12-06T23:02:49.116Z,25.53
2017-12-06T23:05:16.545Z,27.57
2017-12-06T23:07:44.012Z,27.63
2017-12-06T23:10:11.438Z,29.17
2017-12-06T23:12:38.877Z,24.20
2017-12-06T23:15:06.333Z,37.10
2017-12-06T23:17:33.768Z,33.27
2017-12-06T23:20:01.205Z,28.40
2017-12-06T23:22:29.520Z,27.40
2017-12-06T23:24:56.944Z,26.60
2017-12-06T23:27:24.376Z,28.30
2017-12-06T23:29:52.459Z,27.70
2017-12-06T23:32:19.888Z,28.00
2017-12-06T23:34:47.711Z,30.43
2017-12-06T23:37:15.365Z,31.63
2017-12-06T23:39:42.796Z,31.73
2017-12-06T23:42:11.401Z,29.43
2017-12-06T23:44:38.835Z,28.40
2017-12-06T23:47:06.284Z,24.57
2017-12-06T23:49:33.717Z,26.50
2017-12-06T23:52:01.540Z,22.40
2017-12-06T23:54:28.999Z,26.90
2017-12-06T23:56:56.447Z,30.80
2017-12-06T23:59:23.884Z,24.27
